createdAt,value
2017-09-03T00:00:26.901Z,1020.04
2017-09-03T00:01:36.075Z,1020.03
2017-09-03T00:02:45.022Z,1020.03
2017-09-03T00:03:53.860Z,1019.99
2017-09-03T00:05:02.705Z,1019.98
2017-09-03T00:06:11.544Z,1019.94
2017-09-03T00:07:20.389Z,1019.95
2017-09-03T00:08:29.376Z,1019.91
2017-09-03T00:09:38.217Z,1019.9
2017-09-03T00:10:47.060Z,1019.83
2017-09-03T00:11:55.901Z,1019.83
2017-09-03T00:13:04.743Z,1019.78
2017-09-03T00:14:13.686Z,1019.74
2017-09-03T00:15:22.530Z,1019.76
2017-09-03T00:16:31.370Z,1019.71
2017-09-03T00:17:40.212Z,1019.75
2017-09-03T00:18:49.051Z,1019.71
2017-09-03T00:19:58.044Z,1019.76
2017-09-03T00:21:06.884Z,1019.74
2017-09-03T00:22:15.725Z,1019.72
2017-09-03T00:23:24.571Z,1019.67
2017-09-03T00:24:33.413Z,1019.71
2017-09-03T00:25:42.407Z,1019.76
2017-09-03T00:26:51.252Z,1019.73
2017-09-03T00:28:00.090Z,1019.75
2017-09-03T00:29:08.934Z,1019.72
2017-09-03T00:30:17.773Z,1019.68
2017-09-03T00:31:26.666Z,1019.71
2017-09-03T00:32:35.510Z,1019.73
2017-09-03T00:33:44.354Z,1019.71
2017-09-03T00:34:53.194Z,1019.71
2017-09-03T00:36:02.036Z,1019.72
2017-09-03T00:37:10.925Z,1019.7
2017-09-03T00:38:19.765Z,1019.71
2017-09-03T00:39:28.608Z,1019.7
2017-09-03T00:40:37.453Z,1019.7
2017-09-03T00:41:46.298Z,1019.72
2017-09-03T00:42:55.244Z,1019.68
2017-09-03T00:44:04.088Z,1019.69
2017-09-03T00:45:12.933Z,1019.62
2017-09-03T00:46:21.777Z,1019.62
2017-09-03T00:47:30.622Z,1019.62
2017-09-03T00:48:39.565Z,1019.58
2017-09-03T00:49:48.410Z,1019.61
2017-09-03T00:50:57.253Z,1019.63
2017-09-03T00:52:06.095Z,1019.58
2017-09-03T00:53:15.274Z,1019.57
2017-09-03T00:54:24.271Z,1019.58
2017-09-03T00:55:33.116Z,1019.53
2017-09-03T00:56:41.963Z,1019.56
2017-09-03T00:57:50.806Z,1019.54
2017-09-03T00:58:59.650Z,1019.58
2017-09-03T01:00:08.645Z,1019.55
2017-09-03T01:01:17.489Z,1019.52
2017-09-03T01:02:26.334Z,1019.54
2017-09-03T01:03:35.177Z,1019.54
2017-09-03T01:04:44.021Z,1019.5
2017-09-03T01:05:52.966Z,1019.49
2017-09-03T01:07:01.810Z,1019.5
2017-09-03T01:08:10.652Z,1019.5
2017-09-03T01:09:19.499Z,1019.48
2017-09-03T01:10:28.342Z,1019.47
2017-09-03T01:11:37.336Z,1019.47
2017-09-03T01:12:46.181Z,1019.45
2017-09-03T01:13:55.028Z,1019.44
2017-09-03T01:15:03.874Z,1019.46
2017-09-03T01:16:12.720Z,1019.46
2017-09-03T01:17:21.714Z,1019.48
2017-09-03T01:18:30.558Z,1019.48
2017-09-03T01:19:39.402Z,1019.51
2017-09-03T01:20:48.249Z,1019.44
2017-09-03T01:21:57.091Z,1019.48
2017-09-03T01:23:06.184Z,1019.47
2017-09-03T01:24:15.029Z,1019.48
2017-09-03T01:25:23.873Z,1019.47
2017-09-03T01:26:32.718Z,1019.47
2017-09-03T01:27:41.561Z,1019.46
2017-09-03T01:28:50.557Z,1019.47
2017-09-03T01:29:59.401Z,1019.45
2017-09-03T01:31:08.245Z,1019.36
2017-09-03T01:32:17.089Z,1019.39
2017-09-03T01:33:25.928Z,1019.36
2017-09-03T01:34:34.920Z,1019.33
2017-09-03T01:35:43.763Z,1019.37
2017-09-03T01:36:52.604Z,1019.26
2017-09-03T01:38:01.446Z,1019.26
2017-09-03T01:39:10.290Z,1019.22
2017-09-03T01:40:19.283Z,1019.24
2017-09-03T01:41:28.126Z,1019.23
2017-09-03T01:42:36.970Z,1019.2
2017-09-03T01:43:46.152Z,1019.19
2017-09-03T01:44:55.001Z,1019.15
2017-09-03T01:46:03.994Z,1019.21
2017-09-03T01:47:12.838Z,1019.19
2017-09-03T01:48:21.684Z,1019.19
2017-09-03T01:49:30.530Z,1019.18
2017-09-03T01:50:39.373Z,1019.16
2017-09-03T01:51:48.218Z,1019.17
2017-09-03T01:52:57.063Z,1019.18
2017-09-03T01:54:05.901Z,1019.18
2017-09-03T01:55:14.745Z,1019.16
2017-09-03T01:56:23.590Z,1019.12
2017-09-03T01:57:32.579Z,1019.09
2017-09-03T01:58:41.423Z,1019.08
2017-09-03T01:59:50.275Z,1019.11
2017-09-03T02:00:59.108Z,1019.1
2017-09-03T02:02:07.956Z,1019.1
2017-09-03T02:03:16.794Z,1019.12
2017-09-03T02:04:25.636Z,1019.07
2017-09-03T02:05:34.479Z,1019.1
2017-09-03T02:06:43.321Z,1019.04
2017-09-03T02:07:52.165Z,1019.11
2017-09-03T02:09:01.259Z,1019.12
2017-09-03T02:10:10.103Z,1019.08
2017-09-03T02:11:18.944Z,1019.08
2017-09-03T02:12:27.785Z,1019.1
2017-09-03T02:13:36.629Z,1019.1
2017-09-03T02:14:45.520Z,1019.12
2017-09-03T02:15:54.360Z,1019.14
2017-09-03T02:17:03.206Z,1019.16
2017-09-03T02:18:12.046Z,1019.16
2017-09-03T02:19:20.888Z,1019.16
2017-09-03T02:20:29.731Z,1019.13
2017-09-03T02:21:38.578Z,1019.14
2017-09-03T02:22:47.422Z,1019.14
2017-09-03T02:23:56.267Z,1019.12
2017-09-03T02:25:05.110Z,1019.14
2017-09-03T02:26:14.106Z,1019.13
2017-09-03T02:27:22.950Z,1019.09
2017-09-03T02:28:31.798Z,1019.08
2017-09-03T02:29:40.974Z,1019.11
2017-09-03T02:30:49.820Z,1019.05
2017-09-03T02:31:58.914Z,1019.09
2017-09-03T02:33:07.761Z,1019.05
2017-09-03T02:34:16.606Z,1019.05
2017-09-03T02:35:25.449Z,1019.07
2017-09-03T02:36:34.293Z,1019.06
2017-09-03T02:37:43.137Z,1019.04
2017-09-03T02:38:51.980Z,1019.08
2017-09-03T02:40:00.824Z,1019.04
2017-09-03T02:41:09.668Z,1018.99
2017-09-03T02:42:18.512Z,1019
2017-09-03T02:43:27.357Z,1019.03
2017-09-03T02:44:36.200Z,1019.05
2017-09-03T02:45:45.042Z,1019.04
2017-09-03T02:46:53.885Z,1019.06
2017-09-03T02:48:02.728Z,1019.09
2017-09-03T02:49:11.620Z,1019.09
2017-09-03T02:50:20.471Z,1019.13
2017-09-03T02:51:29.307Z,1019.11
2017-09-03T02:52:38.151Z,1019.15
2017-09-03T02:53:47.327Z,1019.15
2017-09-03T02:54:56.219Z,1019.15
2017-09-03T02:56:05.061Z,1019.11
2017-09-03T02:57:13.905Z,1019.09
2017-09-03T02:58:22.749Z,1019.05
2017-09-03T02:59:31.597Z,1019.07
2017-09-03T03:00:40.587Z,1019.06
2017-09-03T03:01:49.428Z,1019.08
2017-09-03T03:02:58.270Z,1019.08
2017-09-03T03:04:07.113Z,1019.14
2017-09-03T03:05:15.962Z,1019.13
2017-09-03T03:06:24.796Z,1019.12
2017-09-03T03:07:33.640Z,1019.12
2017-09-03T03:08:42.481Z,1019.1
2017-09-03T03:09:51.323Z,1019.11
2017-09-03T03:11:00.165Z,1019.06
2017-09-03T03:12:09.056Z,1019.07
2017-09-03T03:13:17.898Z,1019.04
2017-09-03T03:14:26.741Z,1019.06
2017-09-03T03:15:35.583Z,1019.04
2017-09-03T03:16:44.424Z,1019.03
2017-09-03T03:17:53.265Z,1019.02
2017-09-03T03:19:02.445Z,1019.04
2017-09-03T03:20:11.286Z,1019.06
2017-09-03T03:21:20.126Z,1019.03
2017-09-03T03:22:28.968Z,1019.03
2017-09-03T03:23:37.958Z,1019
2017-09-03T03:24:46.805Z,1019.03
2017-09-03T03:25:55.663Z,1019.01
2017-09-03T03:27:04.478Z,1019.01
2017-09-03T03:28:13.321Z,1019.01
2017-09-03T03:29:22.261Z,1019
2017-09-03T03:30:31.102Z,1019.01
2017-09-03T03:31:39.942Z,1019.05
2017-09-03T03:32:48.784Z,1019.06
2017-09-03T03:33:57.627Z,1019.01
2017-09-03T03:35:06.615Z,1019.02
2017-09-03T03:36:15.459Z,1019.05
2017-09-03T03:37:24.300Z,1019.1
2017-09-03T03:38:33.478Z,1019.06
2017-09-03T03:39:42.315Z,1019.07
2017-09-03T03:40:51.156Z,1019.06
2017-09-03T03:41:59.998Z,1019.03
2017-09-03T03:43:08.839Z,1018.99
2017-09-03T03:44:17.682Z,1018.96
2017-09-03T03:45:26.525Z,1018.96
2017-09-03T03:46:35.366Z,1018.93
2017-09-03T03:47:44.208Z,1018.96
2017-09-03T03:48:53.049Z,1018.96
2017-09-03T03:50:01.892Z,1018.91
2017-09-03T03:51:10.735Z,1018.95
2017-09-03T03:52:19.576Z,1018.96
2017-09-03T03:53:28.419Z,1019
2017-09-03T03:54:37.262Z,1018.96
2017-09-03T03:55:46.109Z,1018.92
2017-09-03T03:56:54.955Z,1018.9
2017-09-03T03:58:03.848Z,1018.82
2017-09-03T03:59:12.689Z,1018.83
2017-09-03T04:00:21.529Z,1018.83
2017-09-03T04:01:30.370Z,1018.83
2017-09-03T04:02:39.212Z,1018.82
2017-09-03T04:03:48.205Z,1018.83
2017-09-03T04:04:57.048Z,1018.85
2017-09-03T04:06:05.888Z,1018.84
2017-09-03T04:07:14.728Z,1018.8
2017-09-03T04:08:23.571Z,1018.83
2017-09-03T04:09:32.414Z,1018.87
2017-09-03T04:10:41.255Z,1018.85
2017-09-03T04:11:50.428Z,1018.81
2017-09-03T04:12:59.271Z,1018.81
2017-09-03T04:14:08.109Z,1018.82
2017-09-03T04:15:17.097Z,1018.79
2017-09-03T04:16:25.940Z,1018.81
2017-09-03T04:17:34.781Z,1018.79
2017-09-03T04:18:43.623Z,1018.69
2017-09-03T04:19:52.465Z,1018.75
2017-09-03T04:21:01.460Z,1018.74
2017-09-03T04:22:10.299Z,1018.75
2017-09-03T04:23:19.139Z,1018.75
2017-09-03T04:24:27.979Z,1018.69
2017-09-03T04:25:36.819Z,1018.73
2017-09-03T04:26:45.761Z,1018.72
2017-09-03T04:27:54.602Z,1018.7
2017-09-03T04:29:03.444Z,1018.7
2017-09-03T04:30:12.287Z,1018.72
2017-09-03T04:31:21.134Z,1018.74
2017-09-03T04:32:30.120Z,1018.72
2017-09-03T04:33:38.960Z,1018.71
2017-09-03T04:34:47.803Z,1018.71
2017-09-03T04:35:56.644Z,1018.68
2017-09-03T04:37:05.486Z,1018.7
2017-09-03T04:38:14.476Z,1018.66
2017-09-03T04:39:23.320Z,1018.66
2017-09-03T04:40:32.161Z,1018.65
2017-09-03T04:41:41.002Z,1018.64
2017-09-03T04:42:49.843Z,1018.62
2017-09-03T04:43:59.171Z,1018.59
2017-09-03T04:45:08.014Z,1018.58
2017-09-03T04:46:17.186Z,1018.56
2017-09-03T04:47:26.028Z,1018.58
2017-09-03T04:48:34.870Z,1018.57
2017-09-03T04:49:43.863Z,1018.56
2017-09-03T04:50:52.704Z,1018.56
2017-09-03T04:52:01.545Z,1018.53
2017-09-03T04:53:10.386Z,1018.56
2017-09-03T04:54:19.228Z,1018.53
2017-09-03T04:55:28.319Z,1018.5
2017-09-03T04:56:37.156Z,1018.53
2017-09-03T04:57:45.998Z,1018.58
2017-09-03T04:58:54.840Z,1018.61
2017-09-03T05:00:03.680Z,1018.6
2017-09-03T05:01:12.579Z,1018.65
2017-09-03T05:02:21.750Z,1018.64
2017-09-03T05:03:30.593Z,1018.67
2017-09-03T05:04:39.434Z,1018.64
2017-09-03T05:05:48.277Z,1018.64
2017-09-03T05:06:57.119Z,1018.65
2017-09-03T05:08:05.960Z,1018.64
2017-09-03T05:09:14.801Z,1018.64
2017-09-03T05:10:23.641Z,1018.6
2017-09-03T05:11:32.483Z,1018.64
2017-09-03T05:12:41.328Z,1018.65
2017-09-03T05:13:50.168Z,1018.63
2017-09-03T05:14:59.019Z,1018.64
2017-09-03T05:16:07.856Z,1018.73
2017-09-03T05:17:16.696Z,1018.67
2017-09-03T05:18:25.890Z,1018.69
2017-09-03T05:19:34.732Z,1018.71
2017-09-03T05:20:43.910Z,1018.65
2017-09-03T05:21:52.751Z,1018.66
2017-09-03T05:23:01.594Z,1018.63
2017-09-03T05:24:10.435Z,1018.63
2017-09-03T05:25:19.279Z,1018.65
2017-09-03T05:26:28.117Z,1018.64
2017-09-03T05:27:36.962Z,1018.64
2017-09-03T05:28:45.803Z,1018.64
2017-09-03T05:29:54.797Z,1018.65
2017-09-03T05:31:03.640Z,1018.65
2017-09-03T05:32:12.480Z,1018.63
2017-09-03T05:33:21.324Z,1018.66
2017-09-03T05:34:30.166Z,1018.67
2017-09-03T05:35:39.156Z,1018.69
2017-09-03T05:36:47.998Z,1018.67
2017-09-03T05:37:56.845Z,1018.7
2017-09-03T05:39:05.686Z,1018.67
2017-09-03T05:40:14.526Z,1018.68
2017-09-03T05:41:23.852Z,1018.68
2017-09-03T05:42:32.694Z,1018.67
2017-09-03T05:43:41.534Z,1018.68
2017-09-03T05:44:50.380Z,1018.64
2017-09-03T05:45:59.560Z,1018.65
2017-09-03T05:47:08.603Z,1018.65
2017-09-03T05:48:17.444Z,1018.67
2017-09-03T05:49:26.287Z,1018.66
2017-09-03T05:50:35.130Z,1018.64
2017-09-03T05:51:43.973Z,1018.65
2017-09-03T05:52:52.865Z,1018.61
2017-09-03T05:54:01.709Z,1018.66
2017-09-03T05:55:10.553Z,1018.63
2017-09-03T05:56:19.392Z,1018.61
2017-09-03T05:57:28.235Z,1018.59
2017-09-03T05:58:37.179Z,1018.6
2017-09-03T05:59:46.022Z,1018.65
2017-09-03T06:00:54.866Z,1018.69
2017-09-03T06:02:03.709Z,1018.68
2017-09-03T06:03:12.551Z,1018.67
2017-09-03T06:04:21.539Z,1018.66
2017-09-03T06:05:30.382Z,1018.64
2017-09-03T06:06:39.225Z,1018.68
2017-09-03T06:07:48.068Z,1018.65
2017-09-03T06:08:56.911Z,1018.65
2017-09-03T06:10:05.802Z,1018.67
2017-09-03T06:11:14.645Z,1018.65
2017-09-03T06:12:23.489Z,1018.68
2017-09-03T06:13:32.331Z,1018.67
2017-09-03T06:14:41.175Z,1018.72
2017-09-03T06:15:50.016Z,1018.7
2017-09-03T06:16:58.859Z,1018.72
2017-09-03T06:18:07.705Z,1018.73
2017-09-03T06:19:16.548Z,1018.75
2017-09-03T06:20:25.390Z,1018.72
2017-09-03T06:21:34.284Z,1018.74
2017-09-03T06:22:43.128Z,1018.75
2017-09-03T06:23:51.970Z,1018.76
2017-09-03T06:25:00.812Z,1018.75
2017-09-03T06:26:09.660Z,1018.74
2017-09-03T06:27:18.984Z,1018.77
2017-09-03T06:28:27.825Z,1018.76
2017-09-03T06:29:36.670Z,1018.76
2017-09-03T06:30:45.516Z,1018.77
2017-09-03T06:31:54.361Z,1018.76
2017-09-03T06:33:03.307Z,1018.73
2017-09-03T06:34:12.149Z,1018.74
2017-09-03T06:35:20.994Z,1018.69
2017-09-03T06:36:29.836Z,1018.72
2017-09-03T06:37:39.012Z,1018.72
2017-09-03T06:38:48.008Z,1018.7
2017-09-03T06:39:56.853Z,1018.71
2017-09-03T06:41:05.698Z,1018.71
2017-09-03T06:42:14.540Z,1018.71
2017-09-03T06:43:23.384Z,1018.73
2017-09-03T06:44:32.378Z,1018.71
2017-09-03T06:45:41.221Z,1018.72
2017-09-03T06:46:50.065Z,1018.67
2017-09-03T06:47:58.907Z,1018.71
2017-09-03T06:49:07.752Z,1018.73
2017-09-03T06:50:16.644Z,1018.68
2017-09-03T06:51:25.820Z,1018.7
2017-09-03T06:52:34.661Z,1018.71
2017-09-03T06:53:43.505Z,1018.73
2017-09-03T06:54:52.350Z,1018.68
2017-09-03T06:56:01.348Z,1018.72
2017-09-03T06:57:10.193Z,1018.72
2017-09-03T06:58:19.034Z,1018.75
2017-09-03T06:59:27.877Z,1018.72
2017-09-03T07:00:36.723Z,1018.71
2017-09-03T07:01:45.618Z,1018.66
2017-09-03T07:02:54.468Z,1018.71
2017-09-03T07:04:03.308Z,1018.69
2017-09-03T07:05:12.150Z,1018.68
2017-09-03T07:06:20.994Z,1018.7
2017-09-03T07:07:30.040Z,1018.66
2017-09-03T07:08:38.902Z,1018.7
2017-09-03T07:09:47.750Z,1018.65
2017-09-03T07:10:56.594Z,1018.66
2017-09-03T07:12:05.771Z,1018.65
2017-09-03T07:13:14.765Z,1018.67
2017-09-03T07:14:23.613Z,1018.69
2017-09-03T07:15:32.456Z,1018.68
2017-09-03T07:16:41.300Z,1018.67
2017-09-03T07:17:50.145Z,1018.71
2017-09-03T07:18:59.041Z,1018.67
2017-09-03T07:20:07.886Z,1018.74
2017-09-03T07:21:16.732Z,1018.69
2017-09-03T07:22:25.577Z,1018.66
2017-09-03T07:23:34.420Z,1018.71
2017-09-03T07:24:43.415Z,1018.7
2017-09-03T07:25:52.267Z,1018.74
2017-09-03T07:27:01.111Z,1018.73
2017-09-03T07:28:09.953Z,1018.69
2017-09-03T07:29:18.798Z,1018.72
2017-09-03T07:30:27.792Z,1018.71
2017-09-03T07:31:36.638Z,1018.69
2017-09-03T07:32:45.484Z,1018.7
2017-09-03T07:33:54.330Z,1018.7
2017-09-03T07:35:03.175Z,1018.69
2017-09-03T07:36:12.171Z,1018.73
2017-09-03T07:37:21.013Z,1018.66
2017-09-03T07:38:29.857Z,1018.67
2017-09-03T07:39:38.702Z,1018.69
2017-09-03T07:40:47.546Z,1018.68
2017-09-03T07:41:56.493Z,1018.66
2017-09-03T07:43:05.338Z,1018.7
2017-09-03T07:44:14.184Z,1018.68
2017-09-03T07:45:23.367Z,1018.72
2017-09-03T07:46:32.212Z,1018.69
2017-09-03T07:47:41.356Z,1018.68
2017-09-03T07:48:50.200Z,1018.66
2017-09-03T07:49:59.045Z,1018.7
2017-09-03T07:51:07.891Z,1018.69
2017-09-03T07:52:16.734Z,1018.7
2017-09-03T07:53:25.581Z,1018.72
2017-09-03T07:54:34.426Z,1018.71
2017-09-03T07:55:43.270Z,1018.72
2017-09-03T07:56:52.114Z,1018.74
2017-09-03T07:58:00.960Z,1018.72
2017-09-03T07:59:09.955Z,1018.67
2017-09-03T08:00:18.800Z,1018.69
2017-09-03T08:01:27.644Z,1018.7
2017-09-03T08:02:36.489Z,1018.69
2017-09-03T08:03:45.335Z,1018.69
2017-09-03T08:04:54.331Z,1018.69
2017-09-03T08:06:03.177Z,1018.71
2017-09-03T08:07:12.023Z,1018.7
2017-09-03T08:08:20.869Z,1018.71
2017-09-03T08:09:29.713Z,1018.71
2017-09-03T08:10:38.709Z,1018.72
2017-09-03T08:11:47.554Z,1018.71
2017-09-03T08:12:56.399Z,1018.71
2017-09-03T08:14:05.244Z,1018.74
2017-09-03T08:15:14.088Z,1018.72
2017-09-03T08:16:22.934Z,1018.72
2017-09-03T08:17:31.781Z,1018.77
2017-09-03T08:18:40.627Z,1018.72
2017-09-03T08:19:49.472Z,1018.72
2017-09-03T08:20:58.317Z,1018.71
2017-09-03T08:22:07.650Z,1018.71
2017-09-03T08:23:17.160Z,1018.66
2017-09-03T08:24:26.004Z,1018.68
2017-09-03T08:25:34.848Z,1018.69
2017-09-03T08:26:43.695Z,1018.66
2017-09-03T08:27:52.691Z,1018.66
2017-09-03T08:29:01.534Z,1018.67
2017-09-03T08:30:10.377Z,1018.67
2017-09-03T08:31:19.565Z,1018.64
2017-09-03T08:32:28.413Z,1018.62
2017-09-03T08:33:37.411Z,1018.57
2017-09-03T08:34:46.257Z,1018.58
2017-09-03T08:35:55.102Z,1018.56
2017-09-03T08:37:03.951Z,1018.56
2017-09-03T08:38:12.797Z,1018.55
2017-09-03T08:39:21.792Z,1018.55
2017-09-03T08:40:30.639Z,1018.55
2017-09-03T08:41:39.488Z,1018.53
2017-09-03T08:42:48.335Z,1018.5
2017-09-03T08:43:57.183Z,1018.49
2017-09-03T08:45:06.177Z,1018.49
2017-09-03T08:46:15.023Z,1018.47
2017-09-03T08:47:23.871Z,1018.49
2017-09-03T08:48:32.715Z,1018.47
2017-09-03T08:49:41.563Z,1018.42
2017-09-03T08:50:50.468Z,1018.43
2017-09-03T08:51:59.317Z,1018.43
2017-09-03T08:53:08.162Z,1018.46
2017-09-03T08:54:17.007Z,1018.4
2017-09-03T08:55:25.852Z,1018.42
2017-09-03T08:56:34.751Z,1018.39
2017-09-03T08:57:43.594Z,1018.38
2017-09-03T08:58:52.441Z,1018.33
2017-09-03T09:00:01.286Z,1018.32
2017-09-03T09:01:10.135Z,1018.3
2017-09-03T09:02:19.132Z,1018.28
2017-09-03T09:03:27.979Z,1018.31
2017-09-03T09:04:36.833Z,1018.31
2017-09-03T09:05:45.688Z,1018.3
2017-09-03T09:06:54.547Z,1018.28
2017-09-03T09:08:03.553Z,1018.33
2017-09-03T09:09:12.411Z,1018.31
2017-09-03T09:10:21.268Z,1018.3
2017-09-03T09:11:30.124Z,1018.3
2017-09-03T09:12:38.982Z,1018.26
2017-09-03T09:13:47.890Z,1018.3
2017-09-03T09:14:56.735Z,1018.24
2017-09-03T09:16:05.582Z,1018.23
2017-09-03T09:17:14.428Z,1018.27
2017-09-03T09:18:23.274Z,1018.27
2017-09-03T09:19:32.270Z,1018.27
2017-09-03T09:20:41.117Z,1018.32
2017-09-03T09:21:49.967Z,1018.3
2017-09-03T09:22:58.815Z,1018.29
2017-09-03T09:24:07.665Z,1018.26
2017-09-03T09:25:16.715Z,1018.24
2017-09-03T09:26:25.559Z,1018.22
2017-09-03T09:27:34.407Z,1018.21
2017-09-03T09:28:43.251Z,1018.2
2017-09-03T09:29:52.099Z,1018.14
2017-09-03T09:31:01.096Z,1018.13
2017-09-03T09:32:09.946Z,1018.16
2017-09-03T09:33:18.791Z,1018.17
2017-09-03T09:34:27.638Z,1018.15
2017-09-03T09:35:36.485Z,1018.2
2017-09-03T09:36:45.432Z,1018.19
2017-09-03T09:37:54.280Z,1018.18
2017-09-03T09:39:03.125Z,1018.19
2017-09-03T09:40:11.970Z,1018.16
2017-09-03T09:41:20.816Z,1018.14
2017-09-03T09:42:29.713Z,1018.17
2017-09-03T09:43:38.558Z,1018.19
2017-09-03T09:44:47.740Z,1018.21
2017-09-03T09:45:56.588Z,1018.19
2017-09-03T09:47:05.768Z,1018.17
2017-09-03T09:48:14.831Z,1018.18
2017-09-03T09:51:04.585Z,1018.13
2017-09-03T09:52:13.457Z,1018.15
2017-09-03T09:53:22.432Z,1018.13
2017-09-03T09:54:31.282Z,1018.12
2017-09-03T09:55:40.131Z,1018.11
2017-09-03T09:56:48.981Z,1018.09
2017-09-03T09:57:57.828Z,1018.08
2017-09-03T09:59:06.826Z,1018.11
2017-09-03T10:00:15.674Z,1018.11
2017-09-03T10:01:24.525Z,1018.07
2017-09-03T10:02:33.710Z,1018.09
2017-09-03T10:03:42.567Z,1018.09
2017-09-03T10:04:51.570Z,1018.13
2017-09-03T10:06:00.422Z,1018.1
2017-09-03T10:07:09.271Z,1018.05
2017-09-03T10:08:18.127Z,1018.1
2017-09-03T10:09:27.032Z,1018.06
2017-09-03T10:10:35.930Z,1018.04
2017-09-03T10:11:44.778Z,1018.09
2017-09-03T10:12:53.630Z,1018.09
2017-09-03T10:14:02.479Z,1018.12
2017-09-03T10:15:11.778Z,1018.09
2017-09-03T10:16:20.677Z,1018.08
2017-09-03T10:17:29.526Z,1018.11
2017-09-03T10:18:38.377Z,1018.07
2017-09-03T10:19:47.225Z,1018.06
2017-09-03T10:20:56.074Z,1018.08
2017-09-03T10:22:05.186Z,1018.08
2017-09-03T10:23:14.034Z,1018.08
2017-09-03T10:24:22.882Z,1018.04
2017-09-03T10:25:31.752Z,1018.08
2017-09-03T10:26:40.936Z,1018.06
2017-09-03T10:27:49.836Z,1018.04
2017-09-03T10:28:58.687Z,1018.03
2017-09-03T10:30:07.870Z,1018.04
2017-09-03T10:31:16.721Z,1018.01
2017-09-03T10:32:25.568Z,1018.01
2017-09-03T10:33:34.580Z,1017.98
2017-09-03T10:34:43.429Z,1017.95
2017-09-03T10:35:52.276Z,1017.98
2017-09-03T10:37:01.126Z,1017.98
2017-09-03T10:38:09.975Z,1018.01
2017-09-03T10:39:19.073Z,1017.95
2017-09-03T10:40:27.923Z,1017.93
2017-09-03T10:41:36.776Z,1017.92
2017-09-03T10:42:45.627Z,1017.92
2017-09-03T10:43:54.478Z,1017.95
2017-09-03T10:45:03.578Z,1017.91
2017-09-03T10:46:12.432Z,1017.93
2017-09-03T10:47:21.278Z,1017.94
2017-09-03T10:48:30.124Z,1017.98
2017-09-03T10:49:39.085Z,1017.95
2017-09-03T10:50:48.086Z,1017.99
2017-09-03T10:51:56.938Z,1017.95
2017-09-03T10:53:05.790Z,1017.98
2017-09-03T10:54:14.642Z,1017.98
2017-09-03T10:55:23.492Z,1017.92
2017-09-03T10:56:32.343Z,1017.95
2017-09-03T10:57:41.194Z,1017.94
2017-09-03T10:58:50.043Z,1017.94
2017-09-03T10:59:58.896Z,1017.91
2017-09-03T11:01:07.758Z,1017.87
2017-09-03T11:02:16.639Z,1017.86
2017-09-03T11:03:25.493Z,1017.86
2017-09-03T11:04:34.353Z,1017.9
2017-09-03T11:05:43.212Z,1017.88
2017-09-03T11:06:52.065Z,1017.84
2017-09-03T11:08:00.917Z,1017.84
2017-09-03T11:09:09.767Z,1017.82
2017-09-03T11:10:18.619Z,1017.81
2017-09-03T11:11:27.468Z,1017.83
2017-09-03T11:12:36.317Z,1017.82
2017-09-03T11:13:45.168Z,1017.83
2017-09-03T11:14:54.349Z,1017.86
2017-09-03T11:16:03.197Z,1017.79
2017-09-03T11:17:12.046Z,1017.72
2017-09-03T11:18:20.896Z,1017.77
2017-09-03T11:19:29.746Z,1017.73
2017-09-03T11:20:38.597Z,1017.71
2017-09-03T11:21:47.497Z,1017.71
2017-09-03T11:22:56.347Z,1017.7
2017-09-03T11:24:05.200Z,1017.7
2017-09-03T11:25:14.048Z,1017.68
2017-09-03T11:26:22.897Z,1017.7
2017-09-03T11:27:31.896Z,1017.7
2017-09-03T11:28:40.755Z,1017.65
2017-09-03T11:29:49.606Z,1017.68
2017-09-03T11:30:58.787Z,1017.65
2017-09-03T11:32:07.645Z,1017.68
2017-09-03T11:33:16.641Z,1017.64
2017-09-03T11:34:25.491Z,1017.69
2017-09-03T11:35:34.342Z,1017.68
2017-09-03T11:36:43.195Z,1017.67
2017-09-03T11:37:52.044Z,1017.64
2017-09-03T11:39:00.995Z,1017.65
2017-09-03T11:40:09.849Z,1017.56
2017-09-03T11:41:18.700Z,1017.58
2017-09-03T11:42:27.551Z,1017.6
2017-09-03T11:43:36.401Z,1017.57
2017-09-03T11:44:45.961Z,1017.62
2017-09-03T11:45:54.902Z,1017.57
2017-09-03T11:47:03.787Z,1017.61
2017-09-03T11:48:12.669Z,1017.63
2017-09-03T11:49:21.517Z,1017.59
2017-09-03T11:50:30.370Z,1017.64
2017-09-03T11:51:39.220Z,1017.58
2017-09-03T11:52:48.140Z,1017.58
2017-09-03T11:53:56.998Z,1017.55
2017-09-03T11:55:05.905Z,1017.53
2017-09-03T11:56:14.807Z,1017.54
2017-09-03T11:57:23.682Z,1017.5
2017-09-03T11:58:32.547Z,1017.49
2017-09-03T11:59:41.787Z,1017.5
2017-09-03T12:00:50.664Z,1017.47
2017-09-03T12:01:59.540Z,1017.5
2017-09-03T12:03:08.425Z,1017.52
2017-09-03T12:04:17.309Z,1017.49
2017-09-03T12:05:26.209Z,1017.49
2017-09-03T12:06:35.100Z,1017.49
2017-09-03T12:07:43.992Z,1017.49
2017-09-03T12:08:52.878Z,1017.49
2017-09-03T12:10:01.878Z,1017.46
2017-09-03T12:11:10.729Z,1017.43
2017-09-03T12:12:19.579Z,1017.42
2017-09-03T12:13:28.439Z,1017.39
2017-09-03T12:14:37.291Z,1017.43
2017-09-03T12:15:46.293Z,1017.42
2017-09-03T12:16:55.142Z,1017.37
2017-09-03T12:18:03.998Z,1017.34
2017-09-03T12:19:12.850Z,1017.33
2017-09-03T12:20:21.703Z,1017.33
2017-09-03T12:21:30.705Z,1017.35
2017-09-03T12:22:39.559Z,1017.31
2017-09-03T12:23:48.742Z,1017.33
2017-09-03T12:24:57.606Z,1017.29
2017-09-03T12:26:06.467Z,1017.32
2017-09-03T12:27:15.468Z,1017.3
2017-09-03T12:28:24.349Z,1017.3
2017-09-03T12:29:33.250Z,1017.28
2017-09-03T12:30:42.104Z,1017.27
2017-09-03T12:31:50.954Z,1017.24
2017-09-03T12:32:59.863Z,1017.22
2017-09-03T12:34:08.710Z,1017.25
2017-09-03T12:35:17.899Z,1017.22
2017-09-03T12:36:26.751Z,1017.26
2017-09-03T12:37:35.603Z,1017.16
2017-09-03T12:38:44.885Z,1017.18
2017-09-03T12:39:53.734Z,1017.22
2017-09-03T12:41:02.590Z,1017.17
2017-09-03T12:42:11.441Z,1017.17
2017-09-03T12:43:20.294Z,1017.16
2017-09-03T12:44:29.144Z,1017.13
2017-09-03T12:45:37.997Z,1017.13
2017-09-03T12:46:46.847Z,1017.13
2017-09-03T12:47:55.698Z,1017.13
2017-09-03T12:49:04.549Z,1017.08
2017-09-03T12:50:13.501Z,1017.04
2017-09-03T12:51:22.352Z,1017.02
2017-09-03T12:52:31.203Z,1017.03
2017-09-03T12:53:40.056Z,1017.01
2017-09-03T12:54:48.910Z,1017.03
2017-09-03T12:55:57.912Z,1017.04
2017-09-03T12:57:06.765Z,1017
2017-09-03T12:58:15.620Z,1016.98
2017-09-03T12:59:24.473Z,1016.92
2017-09-03T13:00:33.326Z,1016.98
2017-09-03T13:01:42.278Z,1016.96
2017-09-03T13:02:51.129Z,1016.88
2017-09-03T13:03:59.981Z,1016.88
2017-09-03T13:05:08.831Z,1016.87
2017-09-03T13:06:17.684Z,1016.87
2017-09-03T13:07:26.538Z,1016.87
2017-09-03T13:08:35.389Z,1016.84
2017-09-03T13:09:44.243Z,1016.86
2017-09-03T13:10:53.096Z,1016.79
2017-09-03T13:12:01.962Z,1016.82
2017-09-03T13:13:11.296Z,1016.84
2017-09-03T13:14:20.146Z,1016.88
2017-09-03T13:15:28.999Z,1016.82
2017-09-03T13:16:37.851Z,1016.79
2017-09-03T13:17:46.706Z,1016.8
2017-09-03T13:18:55.608Z,1016.78
2017-09-03T13:20:04.464Z,1016.74
2017-09-03T13:21:13.314Z,1016.79
2017-09-03T13:22:22.173Z,1016.71
2017-09-03T13:23:31.028Z,1016.68
2017-09-03T13:24:40.268Z,1016.72
2017-09-03T13:25:49.125Z,1016.67
2017-09-03T13:26:57.977Z,1016.67
2017-09-03T13:28:06.831Z,1016.66
2017-09-03T13:29:15.687Z,1016.65
2017-09-03T13:30:24.688Z,1016.67
2017-09-03T13:31:33.542Z,1016.63
2017-09-03T13:32:42.398Z,1016.64
2017-09-03T13:33:51.249Z,1016.61
2017-09-03T13:35:00.100Z,1016.62
2017-09-03T13:36:09.002Z,1016.6
2017-09-03T13:37:17.855Z,1016.61
2017-09-03T13:38:26.708Z,1016.61
2017-09-03T13:39:35.558Z,1016.58
2017-09-03T13:40:44.409Z,1016.63
2017-09-03T13:41:53.413Z,1016.58
2017-09-03T13:43:02.264Z,1016.61
2017-09-03T13:44:11.116Z,1016.6
2017-09-03T13:45:19.968Z,1016.58
2017-09-03T13:46:28.822Z,1016.75
2017-09-03T13:47:37.774Z,1016.55
2017-09-03T13:48:46.629Z,1016.65
2017-09-03T13:49:55.480Z,1016.6
2017-09-03T13:51:04.333Z,1016.65
2017-09-03T13:52:13.186Z,1016.65
2017-09-03T13:53:22.042Z,1016.76
2017-09-03T13:54:30.894Z,1016.71
2017-09-03T13:55:39.749Z,1016.6
2017-09-03T13:56:48.609Z,1016.57
2017-09-03T13:57:57.804Z,1016.5